sensor_id;sensor_type;location;lat;lon;timestamp;P1;durP1;ratioP1;P2;durP2;ratioP2
32611;SDS011;19030;49.478;8.986;2023-08-12T00:01:33;10.82;;;5.00;;
32611;SDS011;19030;49.478;8.986;2023-08-12T00:03:33;7.80;;;4.90;;
32611;SDS011;19030;49.478;8.986;2023-08-12T00:05:34;9.52;;;5.65;;
32611;SDS011;19030;49.478;8.986;2023-08-12T00:07:35;10.27;;;5.20;;
32611;SDS011;19030;49.478;8.986;2023-08-12T00:09:36;13.10;;;5.47;;
32611;SDS011;19030;49.478;8.986;2023-08-12T00:11:37;9.70;;;5.30;;
32611;SDS011;19030;49.478;8.986;2023-08-12T00:13:38;8.63;;;5.30;;
32611;SDS011;19030;49.478;8.986;2023-08-12T00:15:39;9.95;;;5.20;;
32611;SDS011;19030;49.478;8.986;2023-08-12T00:17:40;10.95;;;5.53;;
32611;SDS011;19030;49.478;8.986;2023-08-12T00:19:41;8.55;;;5.30;;
32611;SDS011;19030;49.478;8.986;2023-08-12T00:21:42;10.45;;;5.70;;
32611;SDS011;19030;49.478;8.986;2023-08-12T00:23:42;8.40;;;5.38;;
32611;SDS011;19030;49.478;8.986;2023-08-12T00:25:44;7.72;;;5.00;;
32611;SDS011;19030;49.478;8.986;2023-08-12T00:27:44;8.60;;;5.60;;
32611;SDS011;19030;49.478;8.986;2023-08-12T00:29:45;12.60;;;5.55;;
32611;SDS011;19030;49.478;8.986;2023-08-12T00:31:46;10.30;;;5.60;;
32611;SDS011;19030;49.478;8.986;2023-08-12T00:33:46;8.68;;;5.18;;
32611;SDS011;19030;49.478;8.986;2023-08-12T00:35:47;10.73;;;5.50;;
32611;SDS011;19030;49.478;8.986;2023-08-12T00:37:47;9.45;;;5.45;;
32611;SDS011;19030;49.478;8.986;2023-08-12T00:39:48;9.23;;;5.57;;
32611;SDS011;19030;49.478;8.986;2023-08-12T00:41:48;9.68;;;5.40;;
32611;SDS011;19030;49.478;8.986;2023-08-12T00:43:49;8.57;;;4.82;;
32611;SDS011;19030;49.478;8.986;2023-08-12T00:45:50;11.45;;;5.65;;
32611;SDS011;19030;49.478;8.986;2023-08-12T00:47:50;7.93;;;5.07;;
32611;SDS011;19030;49.478;8.986;2023-08-12T00:49:51;8.20;;;5.45;;
32611;SDS011;19030;49.478;8.986;2023-08-12T00:51:52;9.85;;;5.28;;
32611;SDS011;19030;49.478;8.986;2023-08-12T00:53:54;8.77;;;5.72;;
32611;SDS011;19030;49.478;8.986;2023-08-12T00:55:57;9.00;;;5.47;;
32611;SDS011;19030;49.478;8.986;2023-08-12T00:57:57;9.10;;;5.32;;
32611;SDS011;19030;49.478;8.986;2023-08-12T00:59:58;9.75;;;5.28;;
32611;SDS011;19030;49.478;8.986;2023-08-12T01:01:59;11.57;;;6.03;;
32611;SDS011;19030;49.478;8.986;2023-08-12T01:04:01;8.38;;;5.78;;
32611;SDS011;19030;49.478;8.986;2023-08-12T01:06:01;10.48;;;5.38;;
32611;SDS011;19030;49.478;8.986;2023-08-12T01:08:03;12.60;;;5.78;;
32611;SDS011;19030;49.478;8.986;2023-08-12T01:10:05;8.40;;;5.80;;
32611;SDS011;19030;49.478;8.986;2023-08-12T01:12:10;10.00;;;5.57;;
32611;SDS011;19030;49.478;8.986;2023-08-12T01:14:18;13.25;;;5.57;;
32611;SDS011;19030;49.478;8.986;2023-08-12T01:16:36;8.68;;;5.75;;
32611;SDS011;19030;49.478;8.986;2023-08-12T01:18:41;10.67;;;6.03;;
32611;SDS011;19030;49.478;8.986;2023-08-12T01:20:43;8.55;;;5.80;;
32611;SDS011;19030;49.478;8.986;2023-08-12T01:22:43;9.68;;;5.53;;
32611;SDS011;19030;49.478;8.986;2023-08-12T01:24:46;13.82;;;5.70;;
32611;SDS011;19030;49.478;8.986;2023-08-12T01:26:46;10.10;;;5.70;;
32611;SDS011;19030;49.478;8.986;2023-08-12T01:28:52;10.23;;;5.65;;
32611;SDS011;19030;49.478;8.986;2023-08-12T01:30:56;9.77;;;5.70;;
32611;SDS011;19030;49.478;8.986;2023-08-12T01:33:19;11.93;;;5.68;;
32611;SDS011;19030;49.478;8.986;2023-08-12T01:35:40;8.68;;;5.20;;
32611;SDS011;19030;49.478;8.986;2023-08-12T01:37:49;10.75;;;5.60;;
32611;SDS011;19030;49.478;8.986;2023-08-12T01:39:52;13.43;;;6.10;;
32611;SDS011;19030;49.478;8.986;2023-08-12T01:41:54;11.35;;;5.80;;
32611;SDS011;19030;49.478;8.986;2023-08-12T01:43:56;8.75;;;5.68;;
32611;SDS011;19030;49.478;8.986;2023-08-12T01:45:56;13.15;;;5.88;;
32611;SDS011;19030;49.478;8.986;2023-08-12T01:47:57;10.10;;;5.78;;
32611;SDS011;19030;49.478;8.986;2023-08-12T01:49:58;9.85;;;5.85;;
32611;SDS011;19030;49.478;8.986;2023-08-12T01:51:59;8.40;;;5.50;;
32611;SDS011;19030;49.478;8.986;2023-08-12T01:53:59;8.30;;;5.60;;
32611;SDS011;19030;49.478;8.986;2023-08-12T01:56:00;12.52;;;6.07;;
32611;SDS011;19030;49.478;8.986;2023-08-12T01:58:00;12.82;;;5.88;;
32611;SDS011;19030;49.478;8.986;2023-08-12T02:00:01;12.05;;;6.10;;
32611;SDS011;19030;49.478;8.986;2023-08-12T02:02:16;10.73;;;5.93;;
32611;SDS011;19030;49.478;8.986;2023-08-12T02:04:17;9.38;;;5.38;;
32611;SDS011;19030;49.478;8.986;2023-08-12T02:06:18;8.45;;;5.28;;
32611;SDS011;19030;49.478;8.986;2023-08-12T02:08:19;9.55;;;5.75;;
32611;SDS011;19030;49.478;8.986;2023-08-12T02:10:20;8.23;;;5.43;;
32611;SDS011;19030;49.478;8.986;2023-08-12T02:12:20;8.05;;;5.55;;
32611;SDS011;19030;49.478;8.986;2023-08-12T02:14:21;11.25;;;5.60;;
32611;SDS011;19030;49.478;8.986;2023-08-12T02:16:22;10.40;;;5.43;;
32611;SDS011;19030;49.478;8.986;2023-08-12T02:18:22;12.00;;;5.60;;
32611;SDS011;19030;49.478;8.986;2023-08-12T02:20:23;12.45;;;5.60;;
32611;SDS011;19030;49.478;8.986;2023-08-12T02:22:23;9.32;;;5.78;;
32611;SDS011;19030;49.478;8.986;2023-08-12T02:24:25;11.23;;;5.15;;
32611;SDS011;19030;49.478;8.986;2023-08-12T02:26:25;9.57;;;5.65;;
32611;SDS011;19030;49.478;8.986;2023-08-12T02:28:26;8.38;;;5.40;;
32611;SDS011;19030;49.478;8.986;2023-08-12T02:30:28;13.50;;;5.85;;
32611;SDS011;19030;49.478;8.986;2023-08-12T02:32:29;9.55;;;6.10;;
32611;SDS011;19030;49.478;8.986;2023-08-12T02:34:30;9.63;;;5.75;;
32611;SDS011;19030;49.478;8.986;2023-08-12T02:36:30;11.25;;;5.85;;
32611;SDS011;19030;49.478;8.986;2023-08-12T02:38:31;10.02;;;6.00;;
32611;SDS011;19030;49.478;8.986;2023-08-12T02:40:31;11.65;;;5.97;;
32611;SDS011;19030;49.478;8.986;2023-08-12T02:42:32;8.65;;;5.88;;
32611;SDS011;19030;49.478;8.986;2023-08-12T02:44:32;11.15;;;5.88;;
32611;SDS011;19030;49.478;8.986;2023-08-12T02:46:33;11.80;;;5.90;;
32611;SDS011;19030;49.478;8.986;2023-08-12T02:48:35;12.07;;;6.22;;
32611;SDS011;19030;49.478;8.986;2023-08-12T02:50:36;10.68;;;5.88;;
32611;SDS011;19030;49.478;8.986;2023-08-12T02:52:37;10.23;;;6.07;;
32611;SDS011;19030;49.478;8.986;2023-08-12T02:54:37;10.20;;;5.88;;
32611;SDS011;19030;49.478;8.986;2023-08-12T02:56:38;8.55;;;5.72;;
32611;SDS011;19030;49.478;8.986;2023-08-12T02:58:39;10.57;;;5.65;;
32611;SDS011;19030;49.478;8.986;2023-08-12T03:00:42;10.63;;;5.70;;
32611;SDS011;19030;49.478;8.986;2023-08-12T03:02:46;13.32;;;6.07;;
32611;SDS011;19030;49.478;8.986;2023-08-12T03:04:47;8.55;;;5.75;;
32611;SDS011;19030;49.478;8.986;2023-08-12T03:06:47;10.40;;;5.93;;
32611;SDS011;19030;49.478;8.986;2023-08-12T03:08:48;11.18;;;5.68;;
32611;SDS011;19030;49.478;8.986;2023-08-12T03:10:49;10.68;;;5.57;;
32611;SDS011;19030;49.478;8.986;2023-08-12T03:12:51;10.63;;;5.60;;
32611;SDS011;19030;49.478;8.986;2023-08-12T03:14:54;17.15;;;6.18;;
32611;SDS011;19030;49.478;8.986;2023-08-12T03:16:55;8.68;;;6.05;;
32611;SDS011;19030;49.478;8.986;2023-08-12T03:18:56;11.52;;;5.97;;
32611;SDS011;19030;49.478;8.986;2023-08-12T03:20:57;14.93;;;6.22;;
32611;SDS011;19030;49.478;8.986;2023-08-12T03:22:59;9.93;;;5.93;;
32611;SDS011;19030;49.478;8.986;2023-08-12T03:25:00;9.68;;;5.63;;
32611;SDS011;19030;49.478;8.986;2023-08-12T03:27:01;13.77;;;6.00;;
32611;SDS011;19030;49.478;8.986;2023-08-12T03:29:03;9.82;;;5.75;;
32611;SDS011;19030;49.478;8.986;2023-08-12T03:31:04;8.23;;;5.32;;
32611;SDS011;19030;49.478;8.986;2023-08-12T03:33:06;8.40;;;5.40;;
32611;SDS011;19030;49.478;8.986;2023-08-12T03:35:08;9.60;;;5.57;;
32611;SDS011;19030;49.478;8.986;2023-08-12T03:37:09;10.82;;;5.95;;
32611;SDS011;19030;49.478;8.986;2023-08-12T03:39:09;12.63;;;6.05;;
32611;SDS011;19030;49.478;8.986;2023-08-12T03:41:10;8.70;;;5.90;;
32611;SDS011;19030;49.478;8.986;2023-08-12T03:43:11;10.73;;;5.93;;
32611;SDS011;19030;49.478;8.986;2023-08-12T03:45:12;9.57;;;6.38;;
32611;SDS011;19030;49.478;8.986;2023-08-12T03:47:13;10.32;;;5.97;;
32611;SDS011;19030;49.478;8.986;2023-08-12T03:49:14;10.48;;;6.07;;
32611;SDS011;19030;49.478;8.986;2023-08-12T03:51:16;8.93;;;5.93;;
32611;SDS011;19030;49.478;8.986;2023-08-12T03:53:16;9.68;;;5.82;;
32611;SDS011;19030;49.478;8.986;2023-08-12T03:55:17;10.18;;;5.43;;
32611;SDS011;19030;49.478;8.986;2023-08-12T03:57:19;11.90;;;5.93;;
32611;SDS011;19030;49.478;8.986;2023-08-12T03:59:20;12.68;;;5.95;;
32611;SDS011;19030;49.478;8.986;2023-08-12T04:01:20;11.73;;;5.55;;
32611;SDS011;19030;49.478;8.986;2023-08-12T04:03:21;12.10;;;6.00;;
32611;SDS011;19030;49.478;8.986;2023-08-12T04:05:22;21.23;;;6.72;;
32611;SDS011;19030;49.478;8.986;2023-08-12T04:07:22;8.27;;;5.68;;
32611;SDS011;19030;49.478;8.986;2023-08-12T04:09:24;11.85;;;5.88;;
32611;SDS011;19030;49.478;8.986;2023-08-12T04:11:24;10.73;;;5.85;;
32611;SDS011;19030;49.478;8.986;2023-08-12T04:13:25;10.43;;;5.97;;
32611;SDS011;19030;49.478;8.986;2023-08-12T04:15:26;8.63;;;5.95;;
32611;SDS011;19030;49.478;8.986;2023-08-12T04:17:26;12.57;;;5.95;;
32611;SDS011;19030;49.478;8.986;2023-08-12T04:19:27;9.90;;;6.10;;
32611;SDS011;19030;49.478;8.986;2023-08-12T04:21:28;11.75;;;6.38;;
32611;SDS011;19030;49.478;8.986;2023-08-12T04:23:29;12.07;;;6.05;;
32611;SDS011;19030;49.478;8.986;2023-08-12T04:25:29;10.85;;;6.03;;
32611;SDS011;19030;49.478;8.986;2023-08-12T04:27:30;10.82;;;5.72;;
32611;SDS011;19030;49.478;8.986;2023-08-12T04:29:32;9.90;;;6.85;;
32611;SDS011;19030;49.478;8.986;2023-08-12T04:31:34;10.07;;;6.22;;
32611;SDS011;19030;49.478;8.986;2023-08-12T04:33:36;9.77;;;6.68;;
32611;SDS011;19030;49.478;8.986;2023-08-12T04:35:38;9.77;;;6.47;;
32611;SDS011;19030;49.478;8.986;2023-08-12T04:37:39;9.50;;;6.65;;
32611;SDS011;19030;49.478;8.986;2023-08-12T04:39:41;8.75;;;5.65;;
32611;SDS011;19030;49.478;8.986;2023-08-12T04:41:43;10.40;;;6.05;;
32611;SDS011;19030;49.478;8.986;2023-08-12T04:43:44;10.98;;;5.97;;
32611;SDS011;19030;49.478;8.986;2023-08-12T04:45:46;9.55;;;6.03;;
32611;SDS011;19030;49.478;8.986;2023-08-12T04:47:48;13.88;;;6.03;;
32611;SDS011;19030;49.478;8.986;2023-08-12T04:49:52;8.63;;;6.13;;
32611;SDS011;19030;49.478;8.986;2023-08-12T04:51:53;11.32;;;6.20;;
32611;SDS011;19030;49.478;8.986;2023-08-12T04:53:54;10.55;;;6.13;;
32611;SDS011;19030;49.478;8.986;2023-08-12T04:55:55;15.32;;;5.82;;
32611;SDS011;19030;49.478;8.986;2023-08-12T04:57:57;12.30;;;6.03;;
32611;SDS011;19030;49.478;8.986;2023-08-12T04:59:57;12.45;;;6.10;;
32611;SDS011;19030;49.478;8.986;2023-08-12T05:01:58;9.60;;;5.88;;
32611;SDS011;19030;49.478;8.986;2023-08-12T05:03:59;10.27;;;6.10;;
32611;SDS011;19030;49.478;8.986;2023-08-12T05:06:01;10.48;;;6.72;;
32611;SDS011;19030;49.478;8.986;2023-08-12T05:08:01;11.95;;;5.88;;
32611;SDS011;19030;49.478;8.986;2023-08-12T05:10:02;8.93;;;5.93;;
32611;SDS011;19030;49.478;8.986;2023-08-12T05:12:05;8.23;;;6.00;;
32611;SDS011;19030;49.478;8.986;2023-08-12T05:14:06;8.25;;;5.85;;
32611;SDS011;19030;49.478;8.986;2023-08-12T05:16:07;12.25;;;6.65;;
32611;SDS011;19030;49.478;8.986;2023-08-12T05:18:08;11.85;;;6.35;;
32611;SDS011;19030;49.478;8.986;2023-08-12T05:20:08;9.40;;;5.75;;
32611;SDS011;19030;49.478;8.986;2023-08-12T05:22:10;10.85;;;5.97;;
32611;SDS011;19030;49.478;8.986;2023-08-12T05:24:11;9.98;;;6.18;;
32611;SDS011;19030;49.478;8.986;2023-08-12T05:26:12;9.18;;;6.15;;
32611;SDS011;19030;49.478;8.986;2023-08-12T05:28:13;11.32;;;6.05;;
32611;SDS011;19030;49.478;8.986;2023-08-12T05:30:13;11.55;;;6.30;;
32611;SDS011;19030;49.478;8.986;2023-08-12T05:32:14;10.15;;;6.05;;
32611;SDS011;19030;49.478;8.986;2023-08-12T05:34:14;8.30;;;5.70;;
32611;SDS011;19030;49.478;8.986;2023-08-12T05:36:15;8.70;;;6.47;;
32611;SDS011;19030;49.478;8.986;2023-08-12T05:38:16;12.15;;;5.97;;
32611;SDS011;19030;49.478;8.986;2023-08-12T05:40:16;10.13;;;6.22;;
32611;SDS011;19030;49.478;8.986;2023-08-12T05:42:17;8.68;;;6.22;;
32611;SDS011;19030;49.478;8.986;2023-08-12T05:44:17;9.90;;;6.15;;
32611;SDS011;19030;49.478;8.986;2023-08-12T05:46:18;8.50;;;5.88;;
32611;SDS011;19030;49.478;8.986;2023-08-12T05:48:18;9.30;;;6.00;;
32611;SDS011;19030;49.478;8.986;2023-08-12T05:50:19;9.18;;;6.20;;
32611;SDS011;19030;49.478;8.986;2023-08-12T05:52:20;9.30;;;6.25;;
32611;SDS011;19030;49.478;8.986;2023-08-12T05:54:20;15.20;;;6.05;;
32611;SDS011;19030;49.478;8.986;2023-08-12T05:56:21;9.32;;;6.22;;
32611;SDS011;19030;49.478;8.986;2023-08-12T05:58:21;10.00;;;6.28;;
32611;SDS011;19030;49.478;8.986;2023-08-12T06:00:22;8.98;;;5.80;;
32611;SDS011;19030;49.478;8.986;2023-08-12T06:02:22;10.80;;;6.05;;
32611;SDS011;19030;49.478;8.986;2023-08-12T06:04:23;12.57;;;6.30;;
32611;SDS011;19030;49.478;8.986;2023-08-12T06:06:24;11.50;;;6.20;;
32611;SDS011;19030;49.478;8.986;2023-08-12T06:08:25;9.35;;;6.07;;
32611;SDS011;19030;49.478;8.986;2023-08-12T06:10:26;8.20;;;6.13;;
32611;SDS011;19030;49.478;8.986;2023-08-12T06:12:26;10.18;;;6.10;;
32611;SDS011;19030;49.478;8.986;2023-08-12T06:14:27;9.45;;;5.80;;
32611;SDS011;19030;49.478;8.986;2023-08-12T06:16:28;11.73;;;6.30;;
32611;SDS011;19030;49.478;8.986;2023-08-12T06:18:28;10.52;;;6.20;;
32611;SDS011;19030;49.478;8.986;2023-08-12T06:20:29;8.00;;;5.75;;
32611;SDS011;19030;49.478;8.986;2023-08-12T06:22:29;8.75;;;5.90;;
32611;SDS011;19030;49.478;8.986;2023-08-12T06:24:30;8.10;;;5.55;;
32611;SDS011;19030;49.478;8.986;2023-08-12T06:26:30;9.05;;;5.60;;
32611;SDS011;19030;49.478;8.986;2023-08-12T06:28:31;10.30;;;5.93;;
32611;SDS011;19030;49.478;8.986;2023-08-12T06:30:31;8.90;;;6.10;;
32611;SDS011;19030;49.478;8.986;2023-08-12T06:32:33;9.23;;;6.22;;
32611;SDS011;19030;49.478;8.986;2023-08-12T06:34:34;8.95;;;6.03;;
32611;SDS011;19030;49.478;8.986;2023-08-12T06:36:35;10.68;;;5.70;;
32611;SDS011;19030;49.478;8.986;2023-08-12T06:38:35;8.93;;;6.07;;
32611;SDS011;19030;49.478;8.986;2023-08-12T06:40:38;8.52;;;6.80;;
32611;SDS011;19030;49.478;8.986;2023-08-12T06:42:38;11.88;;;6.50;;
32611;SDS011;19030;49.478;8.986;2023-08-12T06:44:39;8.52;;;6.57;;
32611;SDS011;19030;49.478;8.986;2023-08-12T06:46:40;10.20;;;6.88;;
32611;SDS011;19030;49.478;8.986;2023-08-12T06:48:40;9.27;;;6.82;;
32611;SDS011;19030;49.478;8.986;2023-08-12T06:50:41;10.43;;;6.75;;
32611;SDS011;19030;49.478;8.986;2023-08-12T06:52:41;12.43;;;7.20;;
32611;SDS011;19030;49.478;8.986;2023-08-12T06:54:42;14.68;;;8.30;;
32611;SDS011;19030;49.478;8.986;2023-08-12T06:56:43;11.93;;;8.20;;
32611;SDS011;19030;49.478;8.986;2023-08-12T06:58:43;10.02;;;7.30;;
32611;SDS011;19030;49.478;8.986;2023-08-12T07:00:44;8.35;;;6.53;;
32611;SDS011;19030;49.478;8.986;2023-08-12T07:02:44;10.48;;;8.13;;
32611;SDS011;19030;49.478;8.986;2023-08-12T07:04:45;11.27;;;7.40;;
32611;SDS011;19030;49.478;8.986;2023-08-12T07:06:45;9.13;;;6.80;;
32611;SDS011;19030;49.478;8.986;2023-08-12T07:08:46;9.57;;;6.80;;
32611;SDS011;19030;49.478;8.986;2023-08-12T07:10:47;15.50;;;6.13;;
32611;SDS011;19030;49.478;8.986;2023-08-12T07:12:47;11.48;;;7.22;;
32611;SDS011;19030;49.478;8.986;2023-08-12T07:14:48;10.15;;;6.43;;
32611;SDS011;19030;49.478;8.986;2023-08-12T07:16:49;9.85;;;7.35;;
32611;SDS011;19030;49.478;8.986;2023-08-12T07:18:49;9.65;;;7.13;;
32611;SDS011;19030;49.478;8.986;2023-08-12T07:20:50;11.73;;;7.75;;
32611;SDS011;19030;49.478;8.986;2023-08-12T07:22:50;9.00;;;7.20;;
32611;SDS011;19030;49.478;8.986;2023-08-12T07:24:51;10.68;;;7.15;;
32611;SDS011;19030;49.478;8.986;2023-08-12T07:26:52;8.70;;;6.50;;
32611;SDS011;19030;49.478;8.986;2023-08-12T07:28:53;11.50;;;7.95;;
32611;SDS011;19030;49.478;8.986;2023-08-12T07:30:53;11.30;;;7.78;;
32611;SDS011;19030;49.478;8.986;2023-08-12T07:32:54;12.43;;;7.30;;
32611;SDS011;19030;49.478;8.986;2023-08-12T07:34:55;9.10;;;7.13;;
32611;SDS011;19030;49.478;8.986;2023-08-12T07:36:55;9.52;;;7.82;;
32611;SDS011;19030;49.478;8.986;2023-08-12T07:38:56;10.55;;;7.25;;
32611;SDS011;19030;49.478;8.986;2023-08-12T07:40:56;14.98;;;7.53;;
32611;SDS011;19030;49.478;8.986;2023-08-12T07:42:57;9.85;;;8.15;;
32611;SDS011;19030;49.478;8.986;2023-08-12T07:44:58;9.73;;;6.50;;
32611;SDS011;19030;49.478;8.986;2023-08-12T07:46:58;12.20;;;7.28;;
32611;SDS011;19030;49.478;8.986;2023-08-12T07:48:59;8.18;;;6.93;;
32611;SDS011;19030;49.478;8.986;2023-08-12T07:50:59;9.05;;;6.90;;
32611;SDS011;19030;49.478;8.986;2023-08-12T07:53:00;8.55;;;6.63;;
32611;SDS011;19030;49.478;8.986;2023-08-12T07:55:01;8.85;;;5.50;;
32611;SDS011;19030;49.478;8.986;2023-08-12T07:57:02;10.57;;;7.40;;
32611;SDS011;19030;49.478;8.986;2023-08-12T07:59:03;9.45;;;6.97;;
32611;SDS011;19030;49.478;8.986;2023-08-12T08:01:04;12.52;;;6.63;;
32611;SDS011;19030;49.478;8.986;2023-08-12T08:03:05;7.82;;;6.40;;
32611;SDS011;19030;49.478;8.986;2023-08-12T08:05:05;8.65;;;6.13;;
32611;SDS011;19030;49.478;8.986;2023-08-12T08:07:07;9.95;;;7.25;;
32611;SDS011;19030;49.478;8.986;2023-08-12T08:09:07;10.93;;;6.70;;
32611;SDS011;19030;49.478;8.986;2023-08-12T08:11:08;10.45;;;6.93;;
32611;SDS011;19030;49.478;8.986;2023-08-12T08:13:08;8.15;;;6.40;;
32611;SDS011;19030;49.478;8.986;2023-08-12T08:15:09;9.77;;;5.45;;
32611;SDS011;19030;49.478;8.986;2023-08-12T08:17:10;9.80;;;7.20;;
32611;SDS011;19030;49.478;8.986;2023-08-12T08:19:10;8.70;;;6.70;;
32611;SDS011;19030;49.478;8.986;2023-08-12T08:21:11;11.25;;;7.60;;
32611;SDS011;19030;49.478;8.986;2023-08-12T08:23:11;8.20;;;6.53;;
32611;SDS011;19030;49.478;8.986;2023-08-12T08:25:12;10.95;;;7.00;;
32611;SDS011;19030;49.478;8.986;2023-08-12T08:27:13;10.45;;;7.07;;
32611;SDS011;19030;49.478;8.986;2023-08-12T08:29:14;8.85;;;7.45;;
32611;SDS011;19030;49.478;8.986;2023-08-12T08:31:15;8.77;;;7.03;;
32611;SDS011;19030;49.478;8.986;2023-08-12T08:33:15;9.15;;;7.60;;
32611;SDS011;19030;49.478;8.986;2023-08-12T08:35:16;9.27;;;6.43;;
32611;SDS011;19030;49.478;8.986;2023-08-12T08:37:16;20.60;;;8.13;;
32611;SDS011;19030;49.478;8.986;2023-08-12T08:39:17;8.30;;;6.85;;
32611;SDS011;19030;49.478;8.986;2023-08-12T08:41:17;15.10;;;13.77;;
32611;SDS011;19030;49.478;8.986;2023-08-12T08:43:20;13.07;;;11.90;;
32611;SDS011;19030;49.478;8.986;2023-08-12T08:45:24;9.30;;;7.00;;
32611;SDS011;19030;49.478;8.986;2023-08-12T08:47:26;8.45;;;7.28;;
32611;SDS011;19030;49.478;8.986;2023-08-12T08:49:27;10.57;;;7.10;;
32611;SDS011;19030;49.478;8.986;2023-08-12T08:51:30;9.65;;;6.85;;
32611;SDS011;19030;49.478;8.986;2023-08-12T08:53:33;8.95;;;6.85;;
32611;SDS011;19030;49.478;8.986;2023-08-12T08:55:37;9.40;;;6.75;;
32611;SDS011;19030;49.478;8.986;2023-08-12T08:57:38;8.18;;;6.63;;
32611;SDS011;19030;49.478;8.986;2023-08-12T08:59:39;10.07;;;6.82;;
32611;SDS011;19030;49.478;8.986;2023-08-12T09:01:39;9.20;;;6.88;;
32611;SDS011;19030;49.478;8.986;2023-08-12T09:03:41;13.10;;;6.85;;
32611;SDS011;19030;49.478;8.986;2023-08-12T09:05:43;8.73;;;6.70;;
32611;SDS011;19030;49.478;8.986;2023-08-12T09:07:44;9.48;;;5.97;;
32611;SDS011;19030;49.478;8.986;2023-08-12T09:09:46;9.80;;;6.50;;
32611;SDS011;19030;49.478;8.986;2023-08-12T09:11:51;7.78;;;6.20;;
32611;SDS011;19030;49.478;8.986;2023-08-12T09:13:53;11.05;;;6.95;;
32611;SDS011;19030;49.478;8.986;2023-08-12T09:15:53;9.60;;;6.57;;
32611;SDS011;19030;49.478;8.986;2023-08-12T09:17:54;7.80;;;6.10;;
32611;SDS011;19030;49.478;8.986;2023-08-12T09:19:55;8.52;;;6.63;;
32611;SDS011;19030;49.478;8.986;2023-08-12T09:21:55;9.70;;;6.13;;
32611;SDS011;19030;49.478;8.986;2023-08-12T09:23:56;14.45;;;5.65;;
32611;SDS011;19030;49.478;8.986;2023-08-12T09:26:02;14.85;;;5.82;;
32611;SDS011;19030;49.478;8.986;2023-08-12T09:28:03;8.30;;;5.72;;
32611;SDS011;19030;49.478;8.986;2023-08-12T09:30:04;9.43;;;6.32;;
32611;SDS011;19030;49.478;8.986;2023-08-12T09:32:18;10.00;;;6.50;;
32611;SDS011;19030;49.478;8.986;2023-08-12T09:34:19;8.63;;;6.07;;
32611;SDS011;19030;49.478;8.986;2023-08-12T09:36:22;10.60;;;5.85;;
32611;SDS011;19030;49.478;8.986;2023-08-12T09:38:23;10.27;;;5.75;;
32611;SDS011;19030;49.478;8.986;2023-08-12T09:40:24;8.70;;;6.55;;
32611;SDS011;19030;49.478;8.986;2023-08-12T09:42:24;9.38;;;5.63;;
32611;SDS011;19030;49.478;8.986;2023-08-12T09:44:25;8.75;;;5.70;;
32611;SDS011;19030;49.478;8.986;2023-08-12T09:46:26;8.10;;;5.78;;
32611;SDS011;19030;49.478;8.986;2023-08-12T09:48:27;12.27;;;5.90;;
32611;SDS011;19030;49.478;8.986;2023-08-12T09:50:28;12.57;;;7.05;;
32611;SDS011;19030;49.478;8.986;2023-08-12T09:52:29;8.15;;;5.75;;
32611;SDS011;19030;49.478;8.986;2023-08-12T09:54:33;8.35;;;5.82;;
32611;SDS011;19030;49.478;8.986;2023-08-12T09:56:36;11.68;;;6.07;;
32611;SDS011;19030;49.478;8.986;2023-08-12T09:58:37;9.23;;;5.88;;
32611;SDS011;19030;49.478;8.986;2023-08-12T10:00:39;12.65;;;6.50;;
32611;SDS011;19030;49.478;8.986;2023-08-12T10:02:41;8.68;;;6.10;;
32611;SDS011;19030;49.478;8.986;2023-08-12T10:04:45;10.18;;;6.50;;
32611;SDS011;19030;49.478;8.986;2023-08-12T10:06:50;9.05;;;5.53;;
32611;SDS011;19030;49.478;8.986;2023-08-12T10:08:51;9.18;;;6.82;;
32611;SDS011;19030;49.478;8.986;2023-08-12T10:10:53;9.98;;;6.07;;
32611;SDS011;19030;49.478;8.986;2023-08-12T10:12:53;7.82;;;6.10;;
32611;SDS011;19030;49.478;8.986;2023-08-12T10:14:55;9.02;;;6.10;;
32611;SDS011;19030;49.478;8.986;2023-08-12T10:16:56;7.80;;;5.68;;
32611;SDS011;19030;49.478;8.986;2023-08-12T10:18:58;9.65;;;5.50;;
32611;SDS011;19030;49.478;8.986;2023-08-12T10:21:00;7.82;;;5.20;;
32611;SDS011;19030;49.478;8.986;2023-08-12T10:23:01;9.45;;;5.57;;
32611;SDS011;19030;49.478;8.986;2023-08-12T10:25:03;9.07;;;5.63;;
32611;SDS011;19030;49.478;8.986;2023-08-12T10:27:04;8.18;;;6.13;;
32611;SDS011;19030;49.478;8.986;2023-08-12T10:29:05;7.60;;;6.05;;
32611;SDS011;19030;49.478;8.986;2023-08-12T10:31:06;8.30;;;5.72;;
32611;SDS011;19030;49.478;8.986;2023-08-12T10:33:07;7.65;;;5.50;;
32611;SDS011;19030;49.478;8.986;2023-08-12T10:35:09;11.02;;;6.18;;
32611;SDS011;19030;49.478;8.986;2023-08-12T10:37:10;8.82;;;5.88;;
32611;SDS011;19030;49.478;8.986;2023-08-12T10:39:11;9.77;;;5.82;;
32611;SDS011;19030;49.478;8.986;2023-08-12T10:41:16;9.40;;;5.82;;
32611;SDS011;19030;49.478;8.986;2023-08-12T10:43:18;7.75;;;5.70;;
32611;SDS011;19030;49.478;8.986;2023-08-12T10:45:19;10.40;;;4.97;;
32611;SDS011;19030;49.478;8.986;2023-08-12T10:47:19;7.68;;;5.13;;
32611;SDS011;19030;49.478;8.986;2023-08-12T10:49:20;8.10;;;5.57;;
32611;SDS011;19030;49.478;8.986;2023-08-12T10:51:38;7.30;;;5.50;;
32611;SDS011;19030;49.478;8.986;2023-08-12T10:53:39;10.10;;;8.60;;
32611;SDS011;19030;49.478;8.986;2023-08-12T10:55:39;11.30;;;9.38;;
32611;SDS011;19030;49.478;8.986;2023-08-12T10:57:40;10.77;;;9.68;;
32611;SDS011;19030;49.478;8.986;2023-08-12T10:59:50;10.73;;;9.63;;
32611;SDS011;19030;49.478;8.986;2023-08-12T11:01:52;9.68;;;6.30;;
32611;SDS011;19030;49.478;8.986;2023-08-12T11:03:53;12.60;;;6.70;;
32611;SDS011;19030;49.478;8.986;2023-08-12T11:05:53;8.48;;;6.60;;
32611;SDS011;19030;49.478;8.986;2023-08-12T11:07:57;8.10;;;6.45;;
32611;SDS011;19030;49.478;8.986;2023-08-12T11:10:04;11.25;;;6.28;;
32611;SDS011;19030;49.478;8.986;2023-08-12T11:12:17;8.80;;;6.80;;
32611;SDS011;19030;49.478;8.986;2023-08-12T11:14:18;8.57;;;6.13;;
32611;SDS011;19030;49.478;8.986;2023-08-12T11:16:19;7.88;;;5.63;;
32611;SDS011;19030;49.478;8.986;2023-08-12T11:18:34;9.95;;;5.90;;
32611;SDS011;19030;49.478;8.986;2023-08-12T11:20:36;9.75;;;5.93;;
32611;SDS011;19030;49.478;8.986;2023-08-12T11:22:38;9.20;;;5.60;;
32611;SDS011;19030;49.478;8.986;2023-08-12T11:24:43;11.07;;;6.10;;
32611;SDS011;19030;49.478;8.986;2023-08-12T11:26:45;8.70;;;5.93;;
32611;SDS011;19030;49.478;8.986;2023-08-12T11:28:46;8.48;;;5.90;;
32611;SDS011;19030;49.478;8.986;2023-08-12T11:30:47;8.95;;;6.32;;
32611;SDS011;19030;49.478;8.986;2023-08-12T11:32:48;7.65;;;5.93;;
32611;SDS011;19030;49.478;8.986;2023-08-12T11:34:50;13.45;;;6.13;;
32611;SDS011;19030;49.478;8.986;2023-08-12T11:36:51;7.72;;;6.10;;
32611;SDS011;19030;49.478;8.986;2023-08-12T11:38:52;7.63;;;6.03;;
32611;SDS011;19030;49.478;8.986;2023-08-12T11:40:52;8.30;;;6.40;;
32611;SDS011;19030;49.478;8.986;2023-08-12T11:42:53;10.30;;;7.28;;
32611;SDS011;19030;49.478;8.986;2023-08-12T11:44:54;9.93;;;6.72;;
32611;SDS011;19030;49.478;8.986;2023-08-12T11:46:55;9.10;;;6.63;;
32611;SDS011;19030;49.478;8.986;2023-08-12T11:48:56;8.20;;;6.55;;
32611;SDS011;19030;49.478;8.986;2023-08-12T11:50:56;9.38;;;6.85;;
32611;SDS011;19030;49.478;8.986;2023-08-12T11:52:57;10.10;;;6.43;;
32611;SDS011;19030;49.478;8.986;2023-08-12T11:54:58;8.73;;;6.70;;
32611;SDS011;19030;49.478;8.986;2023-08-12T11:56:59;8.63;;;6.43;;
32611;SDS011;19030;49.478;8.986;2023-08-12T11:59:00;10.45;;;6.85;;
32611;SDS011;19030;49.478;8.986;2023-08-12T12:01:00;11.57;;;6.75;;
32611;SDS011;19030;49.478;8.986;2023-08-12T12:03:02;9.32;;;7.35;;
32611;SDS011;19030;49.478;8.986;2023-08-12T12:05:10;12.52;;;6.90;;
32611;SDS011;19030;49.478;8.986;2023-08-12T12:07:18;9.40;;;6.88;;